Time;durP1;ratioP1;P1;durP2;ratioP2;P2;SDS_P1;SDS_P2;PMS_P1;PMS_P2;Temp;Humidity;BMP_temperature;BMP_pressure;BME280_temperature;BME280_humidity;BME280_pressure;Samples;Min_cycle;Max_cycle;Signal;HPM_P1;HPM_P2
2023/07/04 00:01:00;;;;;;;28.80;16.85;;;;;;;24.60;74.53;100468.44;5009595;28;20111;-84
2023/07/04 00:03:27;;;;;;;27.67;17.02;;;;;;;24.56;74.63;100466.34;5009360;28;20494;-79
2023/07/04 00:05:54;;;;;;;29.58;16.48;;;;;;;24.54;74.64;100468.47;5010070;28;20037;-79
2023/07/04 00:08:21;;;;;;;31.77;16.52;;;;;;;24.49;74.63;100463.66;5010078;28;20037;-81
2023/07/04 00:10:47;;;;;;;27.65;17.50;;;;;;;24.43;74.92;100449.94;5009953;28;20030;-81
2023/07/04 00:13:14;;;;;;;33.20;16.48;;;;;;;24.40;74.92;100455.88;5009887;28;20042;-81
2023/07/04 00:15:51;;;;;;;30.00;17.05;;;;;;;24.42;75.12;100462.84;5009675;28;20038;-82
2023/07/04 00:18:21;;;;;;;31.33;17.23;;;;;;;24.34;74.71;100452.91;5009979;28;20041;-86
2023/07/04 00:20:53;;;;;;;31.60;16.48;;;;;;;24.27;74.14;100445.78;5009610;28;20040;-82
2023/07/04 00:23:20;;;;;;;41.30;17.65;;;;;;;24.30;74.30;100453.59;5009463;28;20056;-82
2023/07/04 00:25:45;;;;;;;32.65;16.42;;;;;;;24.29;74.48;100454.63;5009624;28;20458;-84
2023/07/04 00:28:11;;;;;;;27.95;16.90;;;;;;;24.21;74.87;100449.41;4992301;28;20108;-80
2023/07/04 00:30:36;;;;;;;33.97;16.48;;;;;;;24.20;75.23;100451.28;5009131;28;20034;-81
2023/07/04 00:33:02;;;;;;;22.08;15.60;;;;;;;24.20;74.85;100444.94;5009690;28;20034;-81
2023/07/04 00:35:28;;;;;;;20.55;14.38;;;;;;;24.24;74.34;100457.19;5009463;28;20527;-81
2023/07/04 00:37:55;;;;;;;20.55;16.17;;;;;;;24.16;74.30;100450.03;5009149;28;20049;-86
2023/07/04 00:40:21;;;;;;;24.80;16.42;;;;;;;24.15;73.92;100453.00;5009382;28;20038;-84
2023/07/04 00:42:47;;;;;;;31.80;15.88;;;;;;;24.09;73.94;100445.59;5009455;28;20120;-85
2023/07/04 00:45:20;;;;;;;30.63;16.30;;;;;;;24.26;73.51;100460.56;5009133;28;20050;-82
2023/07/04 00:47:54;;;;;;;36.72;17.58;;;;;;;24.20;73.70;100456.78;5008828;28;20038;-82
2023/07/04 00:50:23;;;;;;;23.88;17.65;;;;;;;24.16;74.15;100460.19;5009226;28;20505;-82
2023/07/04 00:52:50;;;;;;;34.38;16.98;;;;;;;24.13;73.98;100449.63;5009310;28;20042;-82
2023/07/04 00:55:16;;;;;;;47.00;20.08;;;;;;;24.17;74.42;100459.13;5009346;28;20053;-84
2023/07/04 00:57:42;;;;;;;30.80;17.23;;;;;;;24.18;75.12;100463.56;5009447;28;20417;-81
2023/07/04 01:00:18;;;;;;;27.77;16.90;;;;;;;24.17;74.59;100459.13;5008864;28;20042;-82
2023/07/04 01:02:52;;;;;;;31.25;17.75;;;;;;;24.28;74.03;100469.44;5008405;28;20038;-81
2023/07/04 01:05:33;;;;;;;33.25;19.58;;;;;;;24.28;74.71;100474.94;5009177;28;20044;-80
2023/07/04 01:08:12;;;;;;;31.65;18.80;;;;;;;24.22;75.17;100475.78;5009394;28;20026;-80
2023/07/04 01:10:42;;;;;;;41.83;18.75;;;;;;;24.04;75.06;100445.38;5009348;28;20037;-81
2023/07/04 01:13:36;;;;;;;43.75;17.05;;;;;;;24.09;75.28;100473.09;5008904;28;20449;-84
2023/07/04 01:16:04;;;;;;;24.00;16.27;;;;;;;23.93;75.02;100457.06;5009091;28;20053;-80
2023/07/04 01:18:31;;;;;;;32.10;18.10;;;;;;;23.99;75.17;100476.28;5009253;28;20065;-81
2023/07/04 01:20:57;;;;;;;23.88;17.27;;;;;;;23.97;75.47;100474.81;5008745;28;20037;-80
2023/07/04 01:23:37;;;;;;;25.00;18.58;;;;;;;23.91;75.92;100475.69;5008746;28;20038;-81
2023/07/04 01:26:44;;;;;;;27.05;17.40;;;;;;;23.87;76.26;100467.00;5008794;28;20112;-82
2023/07/04 01:29:13;;;;;;;24.65;16.60;;;;;;;23.74;76.30;100478.88;4928904;29;20050;-82
2023/07/04 01:31:40;;;;;;;23.80;16.10;;;;;;;23.67;76.10;100482.66;4928760;29;20681;-81
2023/07/04 01:34:08;;;;;;;25.40;16.15;;;;;;;23.70;75.55;100477.59;4929391;29;20040;-81
2023/07/04 01:36:37;;;;;;;29.92;15.38;;;;;;;23.73;75.06;100485.41;4928972;29;20047;-81
2023/07/04 01:39:04;;;;;;;39.75;15.13;;;;;;;23.74;74.34;100484.34;4929752;29;20073;-81
2023/07/04 01:41:30;;;;;;;24.05;15.85;;;;;;;23.73;74.41;100488.16;4932131;29;20632;-81
2023/07/04 01:44:04;;;;;;;25.90;15.32;;;;;;;23.73;75.05;100488.16;4930013;29;20052;-81
2023/07/04 01:46:31;;;;;;;39.58;16.02;;;;;;;23.71;75.16;100479.28;4929479;29;20050;-82
2023/07/04 01:48:57;;;;;;;35.92;20.65;;;;;;;23.64;75.99;100466.63;4929534;29;20130;-81
2023/07/04 01:51:28;;;;;;;35.28;19.50;;;;;;;23.69;76.67;100475.06;4929410;29;20143;-80
2023/07/04 01:53:53;;;;;;;35.58;19.38;;;;;;;23.68;76.46;100484.38;4929287;29;20046;-82
2023/07/04 01:56:19;;;;;;;27.33;16.90;;;;;;;23.73;76.77;100501.88;4928467;29;20123;-80
2023/07/04 01:58:44;;;;;;;28.63;19.75;;;;;;;23.69;76.51;100488.81;4929000;29;20118;-80
2023/07/04 02:01:10;;;;;;;39.13;20.15;;;;;;;23.69;76.54;100486.91;4929040;29;20142;-82
2023/07/04 02:03:36;;;;;;;32.47;19.73;;;;;;;23.70;76.90;100487.72;4987683;28;20038;-81
2023/07/04 02:06:02;;;;;;;41.38;21.20;;;;;;;23.71;76.83;100484.78;5014980;28;20391;-82
2023/07/04 02:08:27;;;;;;;35.15;21.20;;;;;;;23.72;77.77;100494.72;5011695;28;20189;-80
2023/07/04 02:10:53;;;;;;;36.70;21.58;;;;;;;23.73;77.65;100493.66;5015598;28;20057;-82
2023/07/04 02:13:18;;;;;;;48.10;23.63;;;;;;;23.74;77.90;100500.00;5032064;28;20024;-85
2023/07/04 02:15:44;;;;;;;36.22;22.33;;;;;;;23.77;77.77;100494.91;5033181;28;20046;-84
2023/07/04 02:18:09;;;;;;;42.17;23.52;;;;;;;23.72;77.82;100494.72;5022796;28;20461;-80
2023/07/04 02:20:35;;;;;;;47.42;24.48;;;;;;;23.77;78.05;100494.91;5010121;28;20034;-80
2023/07/04 02:23:00;;;;;;;58.08;27.33;;;;;;;23.66;78.46;100492.84;5011184;28;20041;-80
2023/07/04 02:25:26;;;;;;;41.22;24.55;;;;;;;23.69;78.72;100495.16;4995064;28;20513;-80
2023/07/04 02:27:51;;;;;;;37.65;23.85;;;;;;;23.54;78.42;100472.56;5015120;28;20042;-80
2023/07/04 02:30:17;;;;;;;48.53;25.00;;;;;;;23.64;78.26;100483.94;5012961;28;20044;-80
2023/07/04 02:32:42;;;;;;;38.17;24.67;;;;;;;23.69;78.50;100497.91;5013022;28;20096;-79
2023/07/04 02:35:08;;;;;;;48.25;23.88;;;;;;;23.61;78.12;100491.75;5012679;28;20042;-82
2023/07/04 02:37:33;;;;;;;75.25;27.15;;;;;;;23.62;78.28;100494.31;5012214;28;20042;-80
2023/07/04 02:39:59;;;;;;;58.30;26.13;;;;;;;23.60;78.13;100477.22;5012259;28;20387;-81
2023/07/04 02:42:25;;;;;;;35.95;20.33;;;;;;;23.69;77.91;100488.81;5012018;28;20038;-83
2023/07/04 02:44:50;;;;;;;42.65;21.35;;;;;;;23.65;77.41;100485.63;5011957;28;20421;-80
2023/07/04 02:47:17;;;;;;;30.27;19.77;;;;;;;23.57;77.41;100474.88;4993919;28;20409;-82
2023/07/04 02:49:43;;;;;;;33.65;18.55;;;;;;;23.64;76.76;100472.09;5011240;28;20034;-81
2023/07/04 02:52:08;;;;;;;31.48;16.83;;;;;;;23.65;76.60;100480.16;5011462;28;20044;-80
2023/07/04 02:54:34;;;;;;;25.60;16.25;;;;;;;23.56;76.04;100461.34;5011470;28;20044;-81
2023/07/04 02:56:59;;;;;;;27.42;17.08;;;;;;;23.60;75.99;100463.47;5011673;28;20044;-81
2023/07/04 02:59:25;;;;;;;36.78;19.35;;;;;;;23.73;75.43;100485.41;5011232;28;20038;-80
2023/07/04 03:01:52;;;;;;;25.55;18.60;;;;;;;23.65;76.12;100480.16;5011560;28;20046;-80
2023/07/04 03:04:17;;;;;;;35.58;19.13;;;;;;;23.73;75.95;100499.13;5011867;28;20058;-83
2023/07/04 03:06:43;;;;;;;30.80;18.88;;;;;;;23.79;76.28;100492.78;5011161;28;20087;-80
2023/07/04 03:09:08;;;;;;;43.53;20.42;;;;;;;23.75;76.25;100480.56;5011724;28;20057;-81
2023/07/04 03:11:34;;;;;;;36.60;21.65;;;;;;;23.71;76.60;100483.94;5011432;28;20034;-82
2023/07/04 03:13:59;;;;;;;40.28;22.90;;;;;;;23.75;76.83;100483.31;5011506;28;20077;-81
2023/07/04 03:16:25;;;;;;;57.80;23.80;;;;;;;23.75;76.92;100491.56;4993535;28;20769;-83
2023/07/04 03:18:50;;;;;;;53.33;35.92;;;;;;;23.81;76.84;100487.09;5011520;28;20038;-82
2023/07/04 03:21:16;;;;;;;39.88;30.95;;;;;;;23.80;76.71;100479.91;5011104;28;20033;-79
2023/07/04 03:23:41;;;;;;;42.25;23.52;;;;;;;23.89;76.77;100491.50;5011035;28;20091;-80
2023/07/04 03:26:06;;;;;;;47.70;25.08;;;;;;;23.90;76.83;100498.69;5011119;28;20040;-84
2023/07/04 03:28:32;;;;;;;56.65;25.52;;;;;;;23.87;76.79;100496.38;5007957;28;20490;-80
2023/07/04 03:30:57;;;;;;;51.55;27.63;;;;;;;23.78;77.39;100491.13;4991824;28;20564;-79
2023/07/04 03:33:23;;;;;;;48.33;27.27;;;;;;;23.81;78.01;100512.66;5009533;28;20034;-79
2023/07/04 03:35:48;;;;;;;47.38;25.35;;;;;;;23.85;77.78;100516.66;5009424;28;20121;-79
2023/07/04 03:38:14;;;;;;;45.83;24.75;;;;;;;23.93;77.49;100514.75;5008429;28;20084;-79
2023/07/04 03:40:39;;;;;;;59.38;23.65;;;;;;;23.98;77.42;100517.69;5009293;28;20093;-80
2023/07/04 03:43:05;;;;;;;51.08;27.45;;;;;;;23.94;77.39;100510.97;5009701;28;20049;-81
2023/07/04 03:45:30;;;;;;;44.25;24.95;;;;;;;23.99;76.79;100508.41;5008870;28;20085;-78
2023/07/04 03:47:56;;;;;;;42.42;25.27;;;;;;;24.02;76.69;100507.97;5009519;28;20060;-77
2023/07/04 03:50:22;;;;;;;54.88;26.80;;;;;;;24.14;76.30;100520.03;5009250;28;20035;-80
2023/07/04 03:52:48;;;;;;;53.22;28.75;;;;;;;24.11;75.80;100501.22;5009813;28;20140;-85
2023/07/04 03:55:14;;;;;;;57.28;30.33;;;;;;;24.14;75.96;100512.63;5011025;28;20045;-81
2023/07/04 03:57:39;;;;;;;94.90;34.20;;;;;;;24.14;75.90;100512.63;5009028;28;20041;-79
2023/07/04 04:00:06;;;;;;;52.53;28.38;;;;;;;24.04;76.36;100512.19;5009052;28;20510;-88
2023/07/04 04:02:31;;;;;;;89.30;31.10;;;;;;;24.11;76.58;100523.19;5008588;28;20469;-80
2023/07/04 04:04:57;;;;;;;39.17;25.65;;;;;;;24.16;77.00;100512.41;5009728;28;20033;-84
2023/07/04 04:07:23;;;;;;;46.47;25.75;;;;;;;24.27;76.42;100525.50;5009248;28;20433;-80
2023/07/04 04:09:50;;;;;;;70.95;30.42;;;;;;;24.33;76.62;100528.22;5009327;28;20033;-82
2023/07/04 04:12:15;;;;;;;81.55;30.00;;;;;;;24.34;76.61;100513.41;5009381;28;20506;-82
2023/07/04 04:14:41;;;;;;;63.00;25.33;;;;;;;24.42;76.28;100511.47;5008795;28;20161;-82
2023/07/04 04:17:06;;;;;;;70.13;25.20;;;;;;;24.55;76.28;100520.53;5008969;28;20542;-81
2023/07/04 04:19:32;;;;;;;94.60;27.80;;;;;;;24.62;75.85;100531.47;5008660;28;20043;-83
2023/07/04 04:21:58;;;;;;;78.72;27.70;;;;;;;24.66;75.38;100522.56;5009909;28;20117;-85
2023/07/04 04:24:23;;;;;;;98.95;27.27;;;;;;;24.81;74.50;100525.91;5009684;28;20121;-85
2023/07/04 04:26:49;;;;;;;75.03;26.00;;;;;;;24.93;73.63;100534.31;5009455;28;20686;-84
2023/07/04 04:29:17;;;;;;;98.18;25.60;;;;;;;25.03;73.45;100540.19;5009330;28;20090;-83
2023/07/04 04:31:46;;;;;;;83.10;28.55;;;;;;;25.12;72.78;100538.00;5008907;28;20026;-83
2023/07/04 04:34:12;;;;;;;73.72;30.90;;;;;;;25.12;72.63;100513.25;5013448;28;20048;-91
2023/07/04 04:36:38;;;;;;;62.08;34.88;;;;;;;25.23;72.36;100523.53;5011343;28;20034;-88
2023/07/04 04:39:06;;;;;;;63.20;35.10;;;;;;;25.29;72.32;100544.66;5017197;28;20045;-89
2023/07/04 04:41:32;;;;;;;53.28;33.47;;;;;;;25.38;72.26;100535.09;5015510;28;20037;-88
2023/07/04 04:43:59;;;;;;;50.65;29.23;;;;;;;25.48;71.94;100545.59;5011743;28;20090;-85
2023/07/04 04:46:25;;;;;;;54.00;29.55;;;;;;;25.54;72.39;100537.31;5009010;28;20398;-80
2023/07/04 04:48:51;;;;;;;41.72;24.42;;;;;;;25.59;72.84;100543.00;5009060;28;20046;-83
2023/07/04 04:51:18;;;;;;;46.72;24.55;;;;;;;25.59;73.10;100522.88;5008616;28;20033;-82
2023/07/04 04:53:44;;;;;;;41.97;21.77;;;;;;;25.70;74.50;100534.00;5008572;28;20042;-84
2023/07/04 04:56:11;;;;;;;41.15;23.45;;;;;;;25.81;74.78;100544.28;5008675;28;20520;-87
2023/07/04 04:58:37;;;;;;;35.83;21.13;;;;;;;25.76;74.86;100533.09;4992398;28;20049;-82
2023/07/04 05:01:10;;;;;;;43.58;22.17;;;;;;;25.90;74.58;100548.41;5010084;28;20069;-80
2023/07/04 05:03:35;;;;;;;49.63;21.52;;;;;;;25.89;74.17;100551.41;4966405;28;20063;-79
2023/07/04 05:06:02;;;;;;;37.08;20.98;;;;;;;25.89;73.96;100546.75;4966501;28;20035;-81
2023/07/04 05:08:28;;;;;;;31.95;19.17;;;;;;;25.92;73.70;100551.81;4950827;28;20101;-84
2023/07/04 05:11:05;;;;;;;89.75;23.00;;;;;;;25.99;73.71;100557.28;4967085;28;20030;-82
2023/07/04 05:13:38;;;;;;;62.33;21.95;;;;;;;25.84;73.80;100532.78;4950690;28;20099;-81
2023/07/04 05:16:06;;;;;;;58.30;20.23;;;;;;;26.09;73.14;100557.56;4967067;28;20062;-81
2023/07/04 05:18:34;;;;;;;64.32;21.77;;;;;;;26.17;72.79;100560.09;4970044;28;20097;-85
2023/07/04 05:21:05;;;;;;;53.53;21.58;;;;;;;26.16;72.67;100546.50;4967505;28;20068;-82
2023/07/04 05:23:33;;;;;;;32.22;18.65;;;;;;;26.21;72.97;100574.22;4969404;28;20043;-81
2023/07/04 05:26:08;;;;;;;71.15;21.02;;;;;;;26.24;72.93;100566.34;4968431;28;20047;-80
2023/07/04 05:28:34;;;;;;;42.97;20.20;;;;;;;26.35;72.51;100562.00;4966563;28;20042;-78
2023/07/04 05:31:05;;;;;;;34.05;18.80;;;;;;;26.36;73.19;100566.47;4949993;28;20088;-78
2023/07/04 05:33:33;;;;;;;32.20;19.10;;;;;;;26.38;73.02;100556.88;4969263;28;20038;-84
2023/07/04 05:36:13;;;;;;;36.85;17.77;;;;;;;26.43;72.93;100561.69;5009432;28;20038;-84
2023/07/04 05:38:39;;;;;;;31.40;19.77;;;;;;;26.54;72.65;100571.13;4993819;28;20073;-79
2023/07/04 05:41:14;;;;;;;40.83;18.67;;;;;;;26.54;73.20;100549.91;4959014;28;20687;-83
2023/07/04 05:43:41;;;;;;;32.78;16.40;;;;;;;26.81;73.64;100572.53;5009426;28;20033;-82
2023/07/04 05:46:07;;;;;;;29.38;16.27;;;;;;;26.87;73.93;100571.59;5008408;28;20549;-81
2023/07/04 05:48:34;;;;;;;32.97;17.77;;;;;;;26.74;75.73;100568.97;5007805;28;20064;-88
2023/07/04 05:51:03;;;;;;;34.13;16.75;;;;;;;26.73;77.00;100576.38;5010720;28;20030;-88
2023/07/04 05:53:33;;;;;;;41.72;18.45;;;;;;;26.66;78.11;100580.31;5009270;28;20111;-84
2023/07/04 05:56:12;;;;;;;30.55;17.20;;;;;;;26.48;78.85;100578.41;5010396;28;20041;-84
2023/07/04 05:58:41;;;;;;;37.63;17.40;;;;;;;26.40;79.83;100565.75;5010697;28;20048;-84
2023/07/04 06:01:18;;;;;;;34.05;17.42;;;;;;;26.36;80.98;100581.06;5010602;28;20141;-83
2023/07/04 06:03:44;;;;;;;27.05;17.83;;;;;;;26.21;81.71;100566.81;4988022;28;20501;-87
2023/07/04 06:06:30;;;;;;;22.98;17.48;;;;;;;26.20;83.09;100564.28;4988652;28;20045;-84
2023/07/04 06:08:57;;;;;;;36.17;18.35;;;;;;;26.28;83.15;100575.00;4985915;28;20503;-80
2023/07/04 06:11:26;;;;;;;31.75;16.88;;;;;;;26.25;83.16;100561.69;4985480;28;20043;-84
2023/07/04 06:13:53;;;;;;;30.52;15.70;;;;;;;26.50;83.05;100588.16;4988031;28;20042;-83
2023/07/04 06:16:19;;;;;;;34.15;18.05;;;;;;;26.68;82.89;100595.56;4986946;28;20124;-83
2023/07/04 06:18:44;;;;;;;41.97;17.00;;;;;;;26.70;81.21;100576.00;4985429;28;20541;-80
2023/07/04 06:21:12;;;;;;;25.83;15.10;;;;;;;26.76;80.75;100586.97;4970021;28;20494;-84
2023/07/04 06:23:39;;;;;;;39.67;15.25;;;;;;;26.78;80.41;100601.41;4985019;28;20046;-84
2023/07/04 06:26:05;;;;;;;31.30;15.68;;;;;;;26.86;80.23;100598.34;4984862;28;20100;-84
2023/07/04 06:28:36;;;;;;;27.42;13.02;;;;;;;26.93;79.22;100592.75;4985438;28;20080;-84
2023/07/04 06:31:09;;;;;;;24.63;12.65;;;;;;;26.97;78.80;100580.97;4990099;28;20058;-82
2023/07/04 06:33:35;;;;;;;15.90;10.73;;;;;;;27.09;74.46;100591.25;4986711;28;20047;-84
2023/07/04 06:36:00;;;;;;;24.95;12.45;;;;;;;27.17;73.50;100599.22;5007934;28;20068;-81
2023/07/04 06:38:27;;;;;;;22.50;11.80;;;;;;;27.26;72.35;100597.81;5010030;28;20049;-88
2023/07/04 06:40:58;;;;;;;12.95;10.25;;;;;;;27.22;71.97;100585.53;5008562;28;20022;-84
2023/07/04 06:43:28;;;;;;;42.55;12.00;;;;;;;27.40;71.96;100599.31;5007971;28;20082;-84
2023/07/04 06:45:54;;;;;;;27.08;11.02;;;;;;;27.37;72.51;100599.75;5011137;28;20053;-84
2023/07/04 06:48:24;;;;;;;15.30;10.70;;;;;;;27.59;71.80;100603.69;5014511;28;20046;-83
2023/07/04 06:50:58;;;;;;;24.90;12.50;;;;;;;27.65;69.61;100600.00;5023648;28;20034;-90
2023/07/04 06:53:24;;;;;;;22.02;10.73;;;;;;;27.68;69.87;100612.50;5030583;28;20026;-87
2023/07/04 06:55:50;;;;;;;15.85;10.45;;;;;;;27.69;70.78;100615.03;5013238;28;20110;-89
2023/07/04 06:58:15;;;;;;;21.65;11.35;;;;;;;27.69;72.54;100608.66;5019224;28;20129;-84
2023/07/04 07:00:42;;;;;;;14.32;9.90;;;;;;;27.56;73.36;100609.69;5016806;28;20123;-86
2023/07/04 07:03:07;;;;;;;25.55;12.35;;;;;;;27.63;73.93;100615.97;5028432;28;20046;-87
2023/07/04 07:05:37;;;;;;;20.10;11.77;;;;;;;27.65;73.32;100607.44;5014679;28;20029;-88
2023/07/04 07:08:03;;;;;;;49.05;16.00;;;;;;;27.73;72.96;100604.34;5011663;28;20052;-87
2023/07/04 07:10:31;;;;;;;34.75;13.25;;;;;;;27.95;72.32;100602.72;5011417;28;20038;-83
2023/07/04 07:12:57;;;;;;;46.85;14.60;;;;;;;28.03;70.35;100611.50;5012134;28;20034;-80
2023/07/04 07:15:22;;;;;;;33.53;14.00;;;;;;;28.17;69.72;100622.31;5010875;28;20029;-79
2023/07/04 07:17:48;;;;;;;23.95;10.73;;;;;;;28.14;69.55;100625.56;5010876;28;20033;-81
2023/07/04 07:20:13;;;;;;;29.85;12.15;;;;;;;28.20;69.24;100619.09;5010903;28;20056;-80
2023/07/04 07:22:38;;;;;;;20.30;11.95;;;;;;;28.21;68.40;100623.53;5010629;28;20038;-80
2023/07/04 07:25:04;;;;;;;30.98;12.45;;;;;;;28.14;68.41;100614.50;5010327;28;20048;-80
2023/07/04 07:27:30;;;;;;;35.90;12.80;;;;;;;28.15;68.40;100616.19;5011421;28;20069;-83
2023/07/04 07:29:55;;;;;;;25.95;12.73;;;;;;;28.02;68.05;100615.31;5011377;28;20509;-80
2023/07/04 07:32:21;;;;;;;20.15;11.60;;;;;;;28.14;68.05;100612.59;5008683;28;20413;-80
2023/07/04 07:34:46;;;;;;;18.38;11.80;;;;;;;28.15;68.06;100624.50;5010259;28;20049;-78
2023/07/04 07:37:12;;;;;;;24.17;11.82;;;;;;;27.92;67.46;100620.59;5010396;28;20046;-81
2023/07/04 07:39:38;;;;;;;40.13;14.88;;;;;;;28.12;67.99;100619.44;5010427;28;20045;-79
2023/07/04 07:42:04;;;;;;;41.92;12.90;;;;;;;28.16;67.94;100607.69;5010138;28;20395;-81
2023/07/04 07:44:29;;;;;;;20.95;11.98;;;;;;;28.13;67.22;100626.69;5010590;28;20054;-79
2023/07/04 07:46:54;;;;;;;25.23;13.75;;;;;;;28.19;67.47;100626.56;5009881;28;20486;-82
2023/07/04 07:49:20;;;;;;;24.13;11.23;;;;;;;28.19;66.10;100620.19;5009791;28;20057;-80
2023/07/04 07:51:45;;;;;;;29.73;12.43;;;;;;;28.26;66.24;100632.78;5010263;28;20042;-81
2023/07/04 07:54:13;;;;;;;28.48;12.27;;;;;;;28.29;66.57;100634.22;5009721;28;20103;-82
2023/07/04 07:56:41;;;;;;;29.67;12.82;;;;;;;28.43;67.07;100638.47;5009535;28;20042;-79
2023/07/04 07:59:07;;;;;;;23.17;12.68;;;;;;;28.39;66.39;100632.56;5012322;28;20044;-80
2023/07/04 08:01:33;;;;;;;20.58;11.52;;;;;;;28.41;65.36;100641.47;5014207;28;20137;-83
2023/07/04 08:04:00;;;;;;;13.82;10.77;;;;;;;28.38;63.49;100630.03;5015724;28;20045;-80
2023/07/04 08:06:27;;;;;;;21.70;11.93;;;;;;;28.25;63.87;100635.81;5010600;28;20042;-80
2023/07/04 08:08:54;;;;;;;40.15;13.68;;;;;;;28.15;62.09;100632.78;4993124;28;20042;-81
2023/07/04 08:11:20;;;;;;;28.65;11.50;;;;;;;28.00;64.71;100624.94;5011567;28;20041;-80
2023/07/04 08:13:46;;;;;;;21.92;12.80;;;;;;;28.09;64.82;100640.13;5011447;28;20042;-80
2023/07/04 08:16:18;;;;;;;20.80;11.90;;;;;;;28.04;64.06;100649.13;5011785;28;20036;-80
2023/07/04 08:18:43;;;;;;;24.55;12.35;;;;;;;28.01;64.34;100655.09;5011505;28;20038;-80
2023/07/04 08:21:09;;;;;;;26.60;10.73;;;;;;;28.03;65.79;100650.19;5010507;28;20057;-82
2023/07/04 08:23:34;;;;;;;39.22;12.95;;;;;;;28.10;64.48;100650.94;5008906;28;20034;-81
2023/07/04 08:26:00;;;;;;;17.17;11.02;;;;;;;28.23;64.69;100649.03;5009121;28;20034;-81
2023/07/04 08:28:26;;;;;;;26.20;10.77;;;;;;;28.32;60.03;100653.13;5008980;28;20077;-81
2023/07/04 08:30:51;;;;;;;19.65;9.75;;;;;;;28.38;61.06;100658.53;5009154;28;20117;-81
2023/07/04 08:33:18;;;;;;;28.75;11.23;;;;;;;28.41;58.27;100655.28;5009414;28;20169;-80
2023/07/04 08:36:14;;;;;;;12.15;8.85;;;;;;;28.38;59.12;100644.72;5009270;28;20104;-80
2023/07/04 08:38:42;;;;;;;24.35;10.38;;;;;;;28.49;60.12;100654.09;4928820;29;20063;-80
2023/07/04 08:41:39;;;;;;;25.75;12.45;;;;;;;28.55;62.16;100658.66;4929171;29;20046;-80
2023/07/04 08:44:07;;;;;;;17.27;9.88;;;;;;;28.58;61.77;100645.19;4872114;29;20053;-81
2023/07/04 08:46:38;;;;;;;18.10;10.45;;;;;;;28.82;62.71;100650.72;4872563;29;20057;-85
2023/07/04 08:49:04;;;;;;;19.52;10.38;;;;;;;28.85;61.84;100655.78;4872354;29;20037;-82
2023/07/04 08:51:38;;;;;;;25.75;12.52;;;;;;;28.81;64.65;100647.09;4873062;29;20438;-81
2023/07/04 08:54:10;;;;;;;37.42;10.95;;;;;;;28.96;64.26;100654.91;4873280;29;20048;-80
2023/07/04 08:56:38;;;;;;;12.23;9.23;;;;;;;28.95;62.34;100656.84;4872822;29;20144;-80
2023/07/04 08:59:25;;;;;;;33.78;11.27;;;;;;;28.84;61.89;100651.31;4872830;29;20041;-81
2023/07/04 09:02:11;;;;;;;19.90;9.23;;;;;;;28.98;61.63;100659.13;4873357;29;20088;-79
2023/07/04 09:04:50;;;;;;;16.67;10.30;;;;;;;28.93;61.96;100655.38;4873533;29;20049;-82
2023/07/04 09:07:27;;;;;;;15.75;9.55;;;;;;;28.83;63.74;100646.88;4873406;29;20045;-79
2023/07/04 09:10:04;;;;;;;12.13;7.97;;;;;;;28.78;59.32;100655.91;4872693;29;20109;-81
2023/07/04 09:12:34;;;;;;;16.20;9.15;;;;;;;28.92;60.64;100664.78;4872489;29;20135;-81
2023/07/04 09:15:25;;;;;;;24.38;10.05;;;;;;;28.98;61.35;100661.88;4899618;29;20044;-81
2023/07/04 09:18:14;;;;;;;27.40;11.27;;;;;;;28.93;63.92;100660.91;4872707;29;20478;-81
2023/07/04 09:20:50;;;;;;;14.85;10.27;;;;;;;28.90;64.96;100662.25;4881259;29;20048;-82
2023/07/04 09:23:22;;;;;;;22.92;11.80;;;;;;;28.86;66.94;100661.06;4860026;29;20735;-81
2023/07/04 09:25:48;;;;;;;17.20;11.35;;;;;;;29.04;66.53;100674.75;4891221;29;20415;-81
2023/07/04 09:28:13;;;;;;;25.50;11.32;;;;;;;29.06;66.75;100661.50;4891537;29;20052;-80
2023/07/04 09:30:39;;;;;;;20.88;10.77;;;;;;;29.09;65.23;100672.09;4891315;29;20079;-81
2023/07/04 09:33:05;;;;;;;29.65;12.10;;;;;;;29.09;64.98;100668.47;4891072;29;20114;-81
2023/07/04 09:35:31;;;;;;;25.85;12.32;;;;;;;29.06;66.38;100639.34;4890263;29;20382;-81
2023/07/04 09:38:00;;;;;;;19.23;11.98;;;;;;;29.35;67.02;100664.34;4891106;29;20508;-82
2023/07/04 09:40:44;;;;;;;18.55;11.98;;;;;;;29.26;65.63;100671.34;4891303;29;20172;-82
2023/07/04 09:43:11;;;;;;;24.98;11.43;;;;;;;29.26;65.09;100674.97;4891351;29;20470;-81
2023/07/04 09:45:37;;;;;;;21.45;11.55;;;;;;;29.32;63.03;100665.69;4907769;29;20055;-82
2023/07/04 09:48:05;;;;;;;13.68;9.65;;;;;;;29.32;63.14;100671.22;4909818;29;20040;-81
2023/07/04 09:50:34;;;;;;;14.75;10.20;;;;;;;29.27;63.21;100661.94;4910474;29;20047;-82
2023/07/04 09:53:11;;;;;;;15.65;10.93;;;;;;;29.32;62.50;100670.38;4910130;29;20066;-83
2023/07/04 09:55:38;;;;;;;13.30;10.10;;;;;;;29.32;63.05;100664.84;4975604;28;20050;-82
2023/07/04 09:58:36;;;;;;;31.92;13.15;;;;;;;29.25;63.96;100661.34;4989120;28;20483;-80
2023/07/04 10:01:16;;;;;;;20.05;11.00;;;;;;;29.21;62.82;100663.75;4891239;29;20036;-81
2023/07/04 10:03:45;;;;;;;26.92;10.82;;;;;;;29.32;62.86;100662.06;4891108;29;20051;-81
2023/07/04 10:06:11;;;;;;;23.23;10.40;;;;;;;29.31;63.17;100652.06;4890646;29;20171;-80
2023/07/04 10:08:54;;;;;;;25.45;11.82;;;;;;;29.44;63.21;100649.84;4891239;29;20048;-82
2023/07/04 10:11:50;;;;;;;25.15;12.75;;;;;;;29.54;65.42;100655.56;4891259;29;20537;-84
2023/07/04 10:14:16;;;;;;;23.02;13.38;;;;;;;29.64;65.66;100652.13;4854235;29;20048;-82
2023/07/04 10:16:53;;;;;;;23.85;13.02;;;;;;;29.69;65.18;100660.56;4853568;29;20136;-81
2023/07/04 10:19:22;;;;;;;18.35;11.43;;;;;;;29.56;65.99;100649.78;4853717;29;20076;-81
2023/07/04 10:21:53;;;;;;;26.77;13.07;;;;;;;29.67;66.50;100652.47;4854276;29;20065;-81
2023/07/04 10:24:22;;;;;;;18.13;11.20;;;;;;;29.81;64.38;100653.03;4854058;29;20040;-81
2023/07/04 10:26:58;;;;;;;21.40;11.70;;;;;;;29.83;65.80;100655.56;4853473;29;20125;-80
2023/07/04 10:29:38;;;;;;;26.30;12.48;;;;;;;29.79;65.94;100635.78;4861489;29;20044;-84
2023/07/04 10:32:08;;;;;;;26.42;13.40;;;;;;;30.09;65.10;100644.66;4853963;29;20109;-81
2023/07/04 10:34:36;;;;;;;25.55;11.18;;;;;;;30.14;64.94;100646.69;4854200;29;20037;-79
2023/07/04 10:37:03;;;;;;;17.75;11.93;;;;;;;30.13;64.80;100651.38;4890443;29;20075;-84
2023/07/04 10:39:30;;;;;;;26.05;10.73;;;;;;;29.99;64.22;100636.19;4920353;29;20139;-79
2023/07/04 10:42:01;;;;;;;20.63;11.40;;;;;;;29.96;64.58;100650.53;4928721;29;20617;-81
2023/07/04 10:44:30;;;;;;;16.00;10.35;;;;;;;29.97;62.79;100631.94;4928212;29;20051;-81
2023/07/04 10:47:05;;;;;;;39.60;17.00;;;;;;;30.07;60.64;100644.06;4930621;29;20717;-81
2023/07/04 10:49:40;;;;;;;19.25;10.88;;;;;;;30.09;61.55;100644.66;4935548;28;20071;-84
2023/07/04 10:52:14;;;;;;;17.83;10.23;;;;;;;30.20;59.83;100646.50;4994907;28;20053;-84
2023/07/04 10:54:39;;;;;;;19.02;10.75;;;;;;;30.12;60.61;100627.50;5017411;28;20133;-85
2023/07/04 10:57:16;;;;;;;22.17;10.50;;;;;;;30.17;61.23;100635.91;5012919;28;20068;-87
2023/07/04 10:59:44;;;;;;;14.85;10.10;;;;;;;30.20;58.27;100637.34;4971241;28;20134;-80
2023/07/04 11:02:16;;;;;;;26.95;10.85;;;;;;;30.32;57.13;100634.47;4971058;28;20068;-82
2023/07/04 11:04:44;;;;;;;32.88;11.57;;;;;;;30.23;60.83;100634.91;4970453;28;20042;-84
2023/07/04 11:07:17;;;;;;;31.08;16.25;;;;;;;30.22;58.47;100630.44;4971053;28;20043;-82
2023/07/04 11:09:43;;;;;;;24.55;13.48;;;;;;;30.11;57.63;100614.72;4972552;28;20038;-85
2023/07/04 11:12:15;;;;;;;22.05;11.35;;;;;;;30.37;60.05;100640.09;4959920;28;20081;-84
2023/07/04 11:14:44;;;;;;;26.98;10.68;;;;;;;30.60;58.80;100637.16;4972838;28;20058;-82
2023/07/04 11:17:13;;;;;;;17.60;12.23;;;;;;;30.46;60.47;100621.94;4971159;28;20141;-87